Time;durP1;ratioP1;P1;durP2;ratioP2;P2;SDS_P1;SDS_P2;PMS_P1;PMS_P2;Temp;Humidity;BMP_temperature;BMP_pressure;BME280_temperature;BME280_humidity;BME280_pressure;Samples;Min_cycle;Max_cycle;Signal;HPM_P1;HPM_P2
2022/11/06 00:01:43;;;;;;;8.30;5.77;;;9.60;93.40;;;10.06;61.19;99124.53;4944028;28;114386;-75
2022/11/06 00:04:09;;;;;;;9.77;6.20;;;9.60;93.40;;;10.03;61.05;99131.47;4945286;28;113989;-75
2022/11/06 00:06:48;;;;;;;9.07;5.90;;;9.60;93.30;;;9.99;61.02;99122.13;4939521;28;124151;-75
2022/11/06 00:09:18;;;;;;;9.30;6.70;;;9.60;93.20;;;9.89;60.99;99114.03;4945870;28;123815;-74
2022/11/06 00:11:46;;;;;;;9.50;6.20;;;9.50;93.10;;;9.79;61.06;99120.53;4942285;28;113447;-75
2022/11/06 00:14:13;;;;;;;8.43;6.63;;;8.10;92.60;;;9.72;61.43;99114.56;4944127;28;114106;-75
2022/11/06 00:16:43;;;;;;;9.50;5.87;;;9.40;93.20;;;9.68;61.39;99110.78;4936672;28;123851;-74
2022/11/06 00:19:30;;;;;;;8.77;6.07;;;9.40;93.20;;;9.65;61.55;99109.44;4933224;28;123029;-74
2022/11/06 00:21:58;;;;;;;7.73;5.97;;;9.30;93.30;;;9.62;61.74;99093.47;4960516;28;113960;-74
2022/11/06 00:24:26;;;;;;;10.83;5.90;;;9.30;93.30;;;9.65;61.61;99109.44;4943147;28;113139;-75
2022/11/06 00:26:53;;;;;;;8.10;5.90;;;9.30;93.40;;;9.66;61.72;99096.44;4941465;28;123521;-76
2022/11/06 00:29:21;;;;;;;9.30;5.83;;;9.30;93.40;;;9.69;61.61;99104.13;4948017;28;123029;-75
2022/11/06 00:31:49;;;;;;;8.83;6.03;;;9.30;93.40;;;9.71;61.38;99102.69;4948114;28;114239;-75
2022/11/06 00:34:15;;;;;;;9.63;6.97;;;9.30;93.40;;;9.72;61.71;99118.16;4938440;28;113945;-75
2022/11/06 00:36:42;;;;;;;7.40;5.60;;;9.30;93.40;;;9.72;61.48;99115.41;4934403;28;122213;-74
2022/11/06 00:39:10;;;;;;;10.23;6.57;;;9.30;93.40;;;9.71;61.63;99121.19;4965077;28;124420;-75
2022/11/06 00:41:36;;;;;;;25.23;6.37;;;9.30;93.40;;;9.70;61.40;99122.34;4975229;28;114035;-74
2022/11/06 00:44:03;;;;;;;10.60;7.03;;;9.30;93.40;;;9.70;61.39;99125.91;4984151;28;114172;-74
2022/11/06 00:46:30;;;;;;;7.37;6.10;;;9.30;93.40;;;9.70;61.38;99119.56;4970897;28;123841;-74
2022/11/06 00:48:57;;;;;;;12.50;5.93;;;9.20;93.40;;;9.66;61.77;99119.34;4968280;28;123655;-74
2022/11/06 00:51:31;;;;;;;10.90;5.73;;;9.30;93.40;;;9.67;61.72;99125.66;4971148;28;113320;-74
2022/11/06 00:54:00;;;;;;;10.67;6.33;;;9.70;93.60;;;9.66;61.84;99130.38;4970897;28;114551;-74
2022/11/06 00:56:27;;;;;;;10.37;6.13;;;9.30;93.40;;;9.69;61.68;99131.72;4970274;28;123987;-74
2022/11/06 00:58:55;;;;;;;9.93;6.17;;;9.30;93.40;;;9.68;61.47;99128.13;4962245;28;123518;-75
2022/11/06 01:01:28;;;;;;;8.50;6.13;;;9.30;93.40;;;9.69;61.54;99135.28;4970060;28;115007;-75
2022/11/06 01:03:59;;;;;;;9.30;6.07;;;9.30;93.40;;;9.69;61.31;99127.00;4953490;28;113617;-74
2022/11/06 01:06:30;;;;;;;9.03;5.73;;;9.30;93.40;;;9.68;61.72;99119.03;4968443;28;122890;-75
2022/11/06 01:08:57;;;;;;;8.13;5.57;;;9.40;93.40;;;9.67;61.57;99118.22;4969373;28;123490;-74
2022/11/06 01:11:30;;;;;;;7.83;5.63;;;9.20;93.40;;;9.66;61.55;99124.84;4972449;28;112394;-75
2022/11/06 01:14:00;;;;;;;9.50;6.40;;;9.20;93.40;;;9.65;61.63;99120.47;4966912;28;113929;-75
2022/11/06 01:16:27;;;;;;;10.93;6.40;;;9.20;93.40;;;9.65;61.69;99123.22;4973283;28;124189;-76
2022/11/06 01:18:55;;;;;;;8.13;5.70;;;9.20;93.40;;;9.65;61.47;99117.69;5002120;28;124166;-74
2022/11/06 01:21:27;;;;;;;13.30;6.20;;;9.20;93.40;;;9.64;61.46;99124.31;4970181;28;114202;-75
2022/11/06 01:23:59;;;;;;;10.33;5.63;;;9.20;93.40;;;9.64;61.65;99121.56;4974226;28;113788;-78
2022/11/06 01:26:27;;;;;;;8.40;6.40;;;9.20;93.40;;;9.63;61.76;99114.41;4974395;28;123981;-77
2022/11/06 01:28:54;;;;;;;10.93;7.37;;;9.20;93.40;;;9.62;61.55;99112.78;4971111;28;123776;-76
2022/11/06 01:31:25;;;;;;;9.17;6.47;;;9.20;93.50;;;9.60;61.49;99111.44;4972324;28;114234;-76
2022/11/06 01:33:55;;;;;;;10.00;6.47;;;9.60;93.60;;;9.57;61.52;99120.31;4972753;28;114189;-75
2022/11/06 01:36:24;;;;;;;9.70;6.03;;;9.80;93.80;;;9.57;61.83;99123.88;4971288;28;124468;-74
2022/11/06 01:38:53;;;;;;;9.50;7.30;;;9.40;93.60;;;9.56;61.79;99122.22;4971272;28;122963;-74
2022/11/06 01:41:31;;;;;;;8.90;6.80;;;9.10;93.50;;;9.56;61.98;99122.22;4968639;28;113296;-75
2022/11/06 01:44:02;;;;;;;8.73;5.97;;;9.10;93.60;;;9.55;61.82;99125.31;4967972;28;113496;-75
2022/11/06 01:46:33;;;;;;;10.30;6.20;;;9.10;93.60;;;9.57;62.20;99117.56;4973880;28;123789;-75
2022/11/06 01:49:05;;;;;;;13.20;8.03;;;9.10;93.60;;;9.57;62.14;99117.56;4973282;28;123152;-75
2022/11/06 01:51:42;;;;;;;8.30;6.20;;;9.10;93.60;;;9.57;61.75;99112.84;4966875;28;113963;-74
2022/11/06 01:54:10;;;;;;;10.17;6.97;;;9.10;93.70;;;9.56;62.42;99116.72;4952570;28;114252;-74
2022/11/06 01:56:38;;;;;;;10.50;7.23;;;9.30;94.10;;;9.55;62.21;99109.56;5000323;28;124307;-74
2022/11/06 01:59:08;;;;;;;8.07;6.50;;;9.10;93.70;;;9.55;62.27;99115.09;4967657;28;123876;-76
2022/11/06 02:01:35;;;;;;;9.73;6.70;;;9.10;93.70;;;9.55;62.17;99115.09;4969070;28;114250;-75
2022/11/06 02:04:15;;;;;;;14.70;6.87;;;9.10;93.60;;;9.54;62.10;99107.94;4969146;28;113973;-74
2022/11/06 02:06:44;;;;;;;10.83;7.53;;;9.10;93.60;;;9.53;61.87;99106.28;4967518;28;124250;-75
2022/11/06 02:09:11;;;;;;;10.80;6.10;;;9.10;93.60;;;9.51;62.12;99103.03;4969990;28;125402;-74
2022/11/06 02:11:42;;;;;;;13.67;7.20;;;9.10;93.60;;;9.51;61.94;99108.53;4969596;28;113894;-75
2022/11/06 02:14:21;;;;;;;13.93;7.47;;;9.10;93.60;;;9.49;61.56;99110.78;4969148;28;112742;-74
2022/11/06 02:16:55;;;;;;;9.87;6.50;;;9.10;93.50;;;9.47;61.81;99102.78;4988030;28;123432;-75
2022/11/06 02:19:45;;;;;;;9.57;6.43;;;9.00;93.50;;;9.46;61.87;99108.63;4972167;28;123803;-75
2022/11/06 02:22:39;;;;;;;9.37;6.53;;;9.00;93.50;;;9.40;61.79;99101.50;4972602;28;115495;-78
2022/11/06 02:25:49;;;;;;;7.50;5.70;;;9.00;93.50;;;9.32;61.85;99104.94;4991496;28;114518;-74
2022/11/06 02:28:39;;;;;;;8.43;6.80;;;8.90;93.50;;;9.22;61.91;99094.88;4965902;28;124877;-75
2022/11/06 02:31:13;;;;;;;10.87;7.90;;;8.80;93.50;;;9.12;62.20;99082.03;4977057;28;122631;-75
2022/11/06 02:33:57;;;;;;;11.63;6.67;;;8.70;93.50;;;9.05;62.00;99079.66;4968517;28;114396;-74
2022/11/06 02:36:38;;;;;;;9.00;6.80;;;8.60;93.50;;;8.99;62.35;99075.31;4953756;28;113993;-75
2022/11/06 02:39:13;;;;;;;9.70;6.50;;;8.60;93.60;;;8.97;62.33;99077.56;4970380;28;124285;-75
2022/11/06 02:41:43;;;;;;;8.77;6.37;;;8.50;93.60;;;8.96;62.35;99075.09;4971058;28;123527;-79
2022/11/06 02:44:17;;;;;;;10.40;6.77;;;8.50;93.60;;;8.96;62.38;99072.34;5006964;28;113584;-75
2022/11/06 02:46:57;;;;;;;11.53;6.73;;;8.60;93.70;;;8.96;62.30;99069.56;4970528;28;113237;-76
2022/11/06 02:49:50;;;;;;;11.77;7.03;;;8.50;93.60;;;8.95;62.16;99067.94;4968267;28;123976;-74
2022/11/06 02:52:28;;;;;;;9.30;6.47;;;8.50;93.60;;;8.90;62.19;99054.22;4972579;28;125022;-74
2022/11/06 02:55:15;;;;;;;9.40;6.30;;;8.50;93.60;;;8.86;62.45;99040.19;4968852;28;113896;-75
2022/11/06 02:57:53;;;;;;;11.80;6.83;;;8.50;93.60;;;8.80;62.61;99046.91;4999752;28;114131;-74
2022/11/06 03:00:21;;;;;;;7.57;5.40;;;8.40;93.60;;;8.75;62.45;99031.25;4958875;28;124253;-75
2022/11/06 03:03:14;;;;;;;6.87;5.50;;;8.30;93.60;;;8.73;62.44;99024.38;4967444;28;123772;-74
2022/11/06 03:05:54;;;;;;;11.03;6.40;;;8.30;93.60;;;8.71;62.52;99023.88;4973902;28;113284;-74
2022/11/06 03:08:26;;;;;;;9.33;6.53;;;8.30;93.70;;;8.69;62.57;99021.41;4967506;28;113611;-76
2022/11/06 03:11:21;;;;;;;10.40;6.73;;;8.50;93.80;;;8.68;62.31;99021.69;4951828;28;123097;-74
2022/11/06 03:14:01;;;;;;;13.60;6.93;;;8.30;93.70;;;8.64;62.53;99021.47;4967077;28;123653;-75
2022/11/06 03:16:45;;;;;;;8.83;5.90;;;8.30;93.70;;;8.62;62.60;99023.69;4967865;28;115179;-74
2022/11/06 03:19:21;;;;;;;11.63;7.47;;;8.20;93.70;;;8.61;62.76;99022.06;4966769;28;114803;-74
2022/11/06 03:22:10;;;;;;;8.37;6.10;;;8.20;93.70;;;8.63;62.81;99020.66;4967682;28;123849;-75
2022/11/06 03:24:58;;;;;;;7.77;6.47;;;8.20;93.70;;;8.63;62.45;99011.59;4968048;28;124341;-75
2022/11/06 03:27:37;;;;;;;10.30;7.43;;;8.20;93.70;;;8.50;62.40;99013.09;4968676;28;114003;-75
2022/11/06 03:30:10;;;;;;;9.70;6.10;;;8.10;93.70;;;8.44;62.84;99024.50;4953959;28;113951;-75
2022/11/06 03:33:00;;;;;;;10.70;8.00;;;8.00;93.80;;;8.42;62.66;99026.72;4967297;28;124019;-75
2022/11/06 03:36:10;;;;;;;12.40;7.93;;;8.00;93.80;;;8.33;63.04;99024.56;4967278;28;123646;-75
2022/11/06 03:38:49;;;;;;;8.97;6.83;;;7.90;93.80;;;8.28;62.97;99024.63;4964213;28;114356;-75
2022/11/06 03:41:46;;;;;;;8.40;6.40;;;7.80;93.80;;;8.26;62.87;99012.25;4956142;28;113819;-75
2022/11/06 03:44:20;;;;;;;8.90;6.57;;;7.80;93.90;;;8.25;63.15;99016.09;4964069;28;124818;-75
2022/11/06 03:47:00;;;;;;;8.03;5.57;;;7.80;93.90;;;8.26;63.33;99018.56;4965981;28;124481;-75
2022/11/06 03:49:36;;;;;;;6.83;5.90;;;7.80;93.80;;;8.27;62.88;99000.94;4998307;28;113988;-75
2022/11/06 03:52:18;;;;;;;8.97;6.33;;;7.80;93.80;;;8.25;62.77;99003.19;4953192;28;112809;-74
2022/11/06 03:54:55;;;;;;;8.23;6.00;;;7.80;93.80;;;8.24;62.91;98993.28;4967356;28;123870;-75
2022/11/06 03:57:54;;;;;;;6.60;5.90;;;7.80;93.80;;;8.22;62.92;99001.03;4957754;28;123773;-75
2022/11/06 04:00:21;;;;;;;13.90;8.23;;;7.80;93.80;;;8.20;63.05;99003.25;4947214;28;114392;-75
2022/11/06 04:03:03;;;;;;;15.40;9.93;;;7.80;93.80;;;8.23;62.82;99008.16;4968374;28;113037;-74
2022/11/06 04:06:04;;;;;;;10.87;7.53;;;7.80;93.80;;;8.27;62.87;98998.19;4961962;28;124121;-75
2022/11/06 04:14:11;;;;;;;8.80;6.03;;;7.90;93.80;;;8.26;62.83;98988.31;4966722;28;115400;-74
2022/11/06 04:16:44;;;;;;;9.37;7.10;;;7.80;93.70;;;8.20;62.69;98983.97;4965182;28;123532;-74
2022/11/06 04:19:21;;;;;;;8.30;6.00;;;7.80;93.70;;;8.15;62.56;98979.34;4963526;28;123838;-74
2022/11/06 04:22:31;;;;;;;9.50;6.73;;;7.80;93.70;;;8.02;62.42;98974.53;4965089;28;114269;-76
2022/11/06 04:28:34;;;;;;;8.40;6.20;;;7.30;93.60;;;7.66;63.04;98974.06;4972906;28;124978;-74
2022/11/06 04:31:19;;;;;;;8.83;6.90;;;7.20;93.80;;;7.56;63.46;98963.16;4994276;28;124678;-74
2022/11/06 04:34:07;;;;;;;9.33;6.70;;;7.10;93.80;;;7.41;63.34;98962.16;4969799;28;114217;-75
2022/11/06 04:37:08;;;;;;;9.17;6.70;;;7.00;94.00;;;7.26;63.65;98962.31;4952541;28;113394;-74
2022/11/06 04:39:59;;;;;;;8.67;6.07;;;6.80;94.10;;;7.18;63.57;98963.72;4969093;28;124065;-75
2022/11/06 04:42:49;;;;;;;7.30;6.00;;;6.70;94.20;;;7.14;64.14;98948.91;4960323;28;123666;-75
2022/11/06 04:45:24;;;;;;;8.13;5.67;;;6.70;94.20;;;7.14;64.40;98950.84;4971243;28;113431;-75
2022/11/06 04:47:53;;;;;;;8.50;6.30;;;6.70;94.20;;;7.11;63.96;98954.16;4971504;28;113528;-75
2022/11/06 04:50:22;;;;;;;7.03;5.70;;;6.70;94.30;;;7.15;63.85;98949.75;4969727;28;123356;-74
2022/11/06 04:52:50;;;;;;;6.87;5.40;;;6.70;94.20;;;7.19;63.99;98948.88;4968822;28;124434;-75
2022/11/06 04:55:17;;;;;;;7.33;5.10;;;6.90;94.30;;;7.23;63.76;98946.41;4969747;28;114266;-75
2022/11/06 04:57:43;;;;;;;6.00;4.80;;;6.80;94.20;;;7.28;63.87;98935.34;5002053;28;114117;-75
2022/11/06 05:00:14;;;;;;;7.97;5.20;;;6.80;94.20;;;7.33;64.10;98924.31;4969908;28;123988;-74
2022/11/06 05:02:41;;;;;;;8.90;5.57;;;6.90;94.20;;;7.36;63.74;98918.25;4975316;28;123472;-75
2022/11/06 05:05:08;;;;;;;7.20;5.30;;;6.90;94.10;;;7.39;63.72;98936.91;4972956;28;115173;-76
2022/11/06 05:07:35;;;;;;;10.40;5.80;;;7.00;94.10;;;7.38;63.55;98938.00;4986914;28;113704;-75
2022/11/06 05:10:02;;;;;;;7.43;5.50;;;6.90;94.00;;;7.37;63.72;98947.38;4967162;28;123376;-77
2022/11/06 05:12:28;;;;;;;6.93;5.63;;;6.90;94.00;;;7.37;63.65;98952.06;4969604;28;123684;-75
2022/11/06 05:14:55;;;;;;;8.37;5.73;;;6.90;94.00;;;7.36;63.25;98962.22;4970249;28;114193;-74
2022/11/06 05:17:21;;;;;;;9.10;6.17;;;6.90;94.00;;;7.38;63.62;98968.22;4975353;28;113067;-75
2022/11/06 05:19:47;;;;;;;9.33;5.40;;;6.90;94.00;;;7.40;63.77;98970.72;4967886;28;124058;-75
2022/11/06 05:24:59;;;;;;;6.30;4.60;;;7.00;94.10;;;7.46;63.48;98967.63;4974375;28;114814;-75
2022/11/06 05:27:25;;;;;;;5.90;4.90;;;7.00;94.10;;;7.50;63.51;98957.69;4972664;28;114025;-74
2022/11/06 05:29:52;;;;;;;8.30;5.80;;;7.00;94.00;;;7.52;62.78;98958.25;4973219;28;124049;-75
2022/11/06 05:32:18;;;;;;;7.37;5.10;;;7.10;93.90;;;7.49;63.18;98957.97;4973235;28;123513;-76
2022/11/06 05:35:04;;;;;;;7.73;5.80;;;7.10;93.80;;;7.49;62.83;98969.78;4974549;28;114466;-75
2022/11/06 05:37:31;;;;;;;6.83;5.10;;;7.10;93.80;;;7.47;63.29;98973.97;4972606;28;114174;-75
2022/11/06 05:39:58;;;;;;;7.50;5.27;;;7.10;93.80;;;7.51;63.17;98973.06;4988430;28;122945;-75
2022/11/06 05:42:24;;;;;;;9.00;4.90;;;7.10;93.80;;;7.56;63.10;98960.41;4969881;28;123734;-75
2022/11/06 05:44:51;;;;;;;6.73;4.70;;;7.10;93.80;;;7.58;62.60;98953.50;4969814;28;114455;-74
2022/11/06 05:47:18;;;;;;;7.57;5.30;;;7.10;93.70;;;7.60;62.63;98944.97;4955009;28;113930;-74
2022/11/06 05:49:44;;;;;;;9.07;5.43;;;7.20;93.70;;;7.58;62.76;98938.94;4967290;28;123907;-75
2022/11/06 05:52:12;;;;;;;5.27;4.77;;;7.10;93.60;;;7.56;62.55;98943.91;4963565;28;123839;-74
2022/11/06 05:54:38;;;;;;;6.33;4.97;;;7.10;93.50;;;7.53;62.82;98937.88;4969069;28;115166;-74
2022/11/06 05:57:05;;;;;;;8.17;5.63;;;7.10;93.50;;;7.49;62.78;98939.53;4968398;28;114909;-74
2022/11/06 05:59:31;;;;;;;8.83;5.40;;;7.10;93.50;;;7.46;62.46;98956.63;4951304;28;123728;-74
2022/11/06 06:01:58;;;;;;;6.80;5.10;;;7.00;93.50;;;7.42;62.39;98963.81;4969171;28;122905;-74
2022/11/06 06:04:24;;;;;;;7.50;6.00;;;7.00;93.50;;;7.42;62.52;98965.75;4971010;28;113024;-75
2022/11/06 06:06:51;;;;;;;6.73;4.40;;;7.00;93.60;;;7.42;62.70;98971.25;5004048;28;113600;-74
2022/11/06 06:09:17;;;;;;;6.50;4.77;;;7.00;93.60;;;7.42;62.62;98960.25;4969329;28;123887;-74
2022/11/06 06:11:44;;;;;;;6.70;4.50;;;7.00;93.60;;;7.41;62.34;98958.59;4969511;28;124386;-75
2022/11/06 06:14:10;;;;;;;6.17;4.93;;;7.00;93.60;;;7.41;62.47;98955.84;4970713;28;113662;-74
2022/11/06 06:16:37;;;;;;;6.20;4.33;;;7.10;93.50;;;7.38;62.27;98965.50;4969626;28;113927;-75
2022/11/06 06:19:03;;;;;;;6.50;4.47;;;7.40;93.70;;;7.38;62.70;98976.47;4984661;28;123465;-75
2022/11/06 06:21:30;;;;;;;5.03;4.53;;;7.90;93.80;;;7.37;62.64;98969.34;4967866;28;123863;-75
2022/11/06 06:23:59;;;;;;;5.70;4.60;;;6.90;93.40;;;7.34;62.13;98966.38;4969358;28;114282;-74
2022/11/06 06:26:26;;;;;;;6.50;4.07;;;6.90;93.40;;;7.28;62.21;98960.06;4968149;28;114139;-75
2022/11/06 06:28:52;;;;;;;7.23;4.30;;;6.80;93.30;;;7.26;62.25;98962.31;4967493;28;123940;-75
2022/11/06 06:31:19;;;;;;;11.63;5.20;;;6.80;93.30;;;7.24;62.55;98959.00;4972190;28;123418;-75
2022/11/06 06:33:45;;;;;;;6.70;5.63;;;6.80;93.30;;;7.17;62.59;98948.34;4967473;28;113829;-74
2022/11/06 06:36:20;;;;;;;5.83;4.67;;;6.70;93.30;;;7.14;62.62;98945.34;4947885;28;114178;-75
2022/11/06 06:38:47;;;;;;;4.50;4.10;;;6.70;93.40;;;7.15;62.35;98938.75;4954408;28;125041;-74
2022/11/06 06:41:14;;;;;;;7.90;5.30;;;6.70;93.50;;;7.18;62.39;98943.69;4959643;28;122756;-75
2022/11/06 06:43:40;;;;;;;5.83;3.97;;;6.70;93.50;;;7.22;62.37;98955.72;4962520;28;115087;-74
2022/11/06 06:46:07;;;;;;;4.97;3.93;;;6.70;93.50;;;7.26;62.54;98951.31;4955778;28;114876;-74
2022/11/06 06:48:34;;;;;;;5.87;4.53;;;6.80;93.50;;;7.32;62.71;98954.84;4963133;28;122951;-75
2022/11/06 06:51:02;;;;;;;5.17;4.67;;;6.80;93.50;;;7.35;62.40;98941.31;4984937;28;122969;-75
2022/11/06 06:53:29;;;;;;;7.53;5.10;;;6.80;93.50;;;7.35;62.52;98929.53;4950793;28;113376;-75
2022/11/06 06:56:00;;;;;;;5.97;4.33;;;6.90;93.50;;;7.40;61.92;98930.28;4960982;28;114769;-75
2022/11/06 06:58:30;;;;;;;6.23;4.90;;;6.90;93.50;;;7.43;62.31;98929.72;4962351;28;124087;-75
2022/11/06 07:01:02;;;;;;;7.37;5.40;;;6.90;93.50;;;7.45;61.95;98924.75;4956222;28;123909;-74
2022/11/06 07:03:31;;;;;;;7.00;5.13;;;6.90;93.40;;;7.42;61.81;98925.34;4976925;28;113331;-75
2022/11/06 07:05:59;;;;;;;5.83;4.67;;;6.90;93.40;;;7.43;62.01;98918.72;4958991;28;113953;-74
2022/11/06 07:08:27;;;;;;;7.27;4.70;;;6.90;93.40;;;7.44;62.23;98909.38;4947034;28;123901;-75
2022/11/06 07:10:59;;;;;;;6.80;5.70;;;6.90;93.30;;;7.40;61.67;98911.06;4971339;28;124265;-74
2022/11/06 07:13:26;;;;;;;7.73;5.17;;;6.90;93.30;;;7.33;61.72;98913.31;4999969;28;114213;-74
2022/11/06 07:15:52;;;;;;;11.77;5.70;;;6.80;93.30;;;7.28;61.98;98905.94;4986280;28;113338;-74
2022/11/06 07:18:20;;;;;;;9.47;4.57;;;6.70;93.40;;;7.32;62.06;98902.63;4999672;28;123238;-74
2022/11/06 07:21:08;;;;;;;7.17;4.80;;;6.80;93.50;;;7.35;62.04;98889.09;4970870;28;124244;-75
2022/11/06 07:23:55;;;;;;;5.97;4.90;;;6.80;93.50;;;7.34;62.39;98876.50;4961584;28;112212;-74
2022/11/06 07:26:21;;;;;;;7.83;5.23;;;6.80;93.50;;;7.32;62.70;98872.38;4972710;28;113757;-78
2022/11/06 07:28:48;;;;;;;7.20;5.30;;;6.80;93.50;;;7.30;62.56;98869.91;4970742;28;124219;-75
2022/11/06 07:31:14;;;;;;;6.60;5.00;;;6.80;93.60;;;7.25;62.63;98875.47;4957183;28;123772;-75
2022/11/06 07:33:41;;;;;;;8.60;5.47;;;6.70;93.60;;;7.21;63.08;98871.66;4999621;28;115135;-75
2022/11/06 07:36:11;;;;;;;8.20;5.63;;;6.70;93.70;;;7.24;62.93;98871.06;5000606;28;114804;-75
2022/11/06 07:38:40;;;;;;;6.43;4.87;;;6.70;93.70;;;7.24;62.52;98869.16;4967679;28;123836;-75
2022/11/06 07:41:10;;;;;;;5.13;4.03;;;6.70;93.70;;;7.29;62.81;98869.09;4965186;28;123749;-75
2022/11/06 07:43:37;;;;;;;6.67;4.70;;;6.80;93.80;;;7.31;62.99;98866.06;4965306;28;114383;-76
2022/11/06 07:46:08;;;;;;;9.00;6.07;;;6.80;93.80;;;7.35;63.08;98855.31;4951052;28;113762;-75
2022/11/06 07:48:35;;;;;;;7.27;5.50;;;6.90;93.80;;;7.37;62.83;98853.91;4949513;28;123566;-75
2022/11/06 07:51:05;;;;;;;9.40;6.10;;;6.80;93.70;;;7.39;62.78;98848.97;4991271;28;123197;-75
2022/11/06 07:53:33;;;;;;;6.40;4.70;;;6.80;93.80;;;7.43;62.96;98833.50;4968366;28;114047;-75
2022/11/06 07:56:00;;;;;;;6.67;5.17;;;6.90;93.80;;;7.45;62.47;98834.03;4955966;28;113225;-75
2022/11/06 07:58:27;;;;;;;9.17;5.63;;;6.90;93.80;;;7.48;62.47;98829.88;4966210;28;124001;-76
2022/11/06 08:00:57;;;;;;;9.33;6.30;;;6.90;93.80;;;7.51;62.54;98816.38;4968164;28;124078;-75
2022/11/06 08:03:25;;;;;;;9.80;5.83;;;7.00;93.90;;;7.52;62.89;98807.03;4968494;28;114243;-75
2022/11/06 08:05:51;;;;;;;9.07;6.30;;;6.90;93.80;;;7.55;62.67;98810.28;4968338;28;113717;-75
2022/11/06 08:08:18;;;;;;;8.30;6.40;;;7.00;93.90;;;7.62;62.35;98813.50;4985119;28;123083;-75
2022/11/06 08:10:46;;;;;;;7.13;5.10;;;7.00;93.80;;;7.64;62.53;98803.06;4967079;28;123832;-74
2022/11/06 08:13:16;;;;;;;7.53;5.13;;;7.20;93.90;;;7.66;62.07;98800.84;4958326;28;114093;-76
2022/11/06 08:15:43;;;;;;;6.40;5.07;;;7.10;93.80;;;7.68;62.45;98804.09;4956156;28;114382;-75
2022/11/06 08:18:11;;;;;;;7.37;5.03;;;7.20;93.80;;;7.72;62.75;98805.16;4954113;28;123222;-75
2022/11/06 08:20:39;;;;;;;6.47;5.40;;;7.70;94.00;;;7.79;62.58;98789.13;4961074;28;123741;-75
2022/11/06 08:23:10;;;;;;;7.57;5.40;;;7.20;93.80;;;7.87;62.49;98787.63;4952721;28;114959;-75
2022/11/06 08:25:37;;;;;;;7.73;6.10;;;7.30;93.80;;;7.95;62.38;98784.22;4961068;28;115928;-75
2022/11/06 08:28:04;;;;;;;5.90;5.07;;;7.40;93.80;;;8.02;62.40;98790.19;4967938;28;123652;-75
2022/11/06 08:30:31;;;;;;;6.60;5.03;;;7.40;93.80;;;8.10;62.06;98795.03;4965727;28;123645;-75
2022/11/06 08:33:07;;;;;;;8.00;5.50;;;7.70;93.90;;;8.24;62.61;98799.78;4970776;28;113341;-77
2022/11/06 08:35:34;;;;;;;9.00;5.27;;;7.60;94.00;;;8.43;64.39;98789.63;4955218;28;114360;-74
2022/11/06 08:38:00;;;;;;;9.77;5.27;;;7.80;95.10;;;8.59;63.73;98790.19;4960415;28;123911;-76
2022/11/06 08:40:26;;;;;;;7.10;5.47;;;7.90;94.90;;;8.60;63.00;98792.66;4969256;28;123834;-76
2022/11/06 08:42:59;;;;;;;6.20;4.73;;;8.00;94.50;;;8.61;62.51;98794.28;4966305;28;114683;-76
2022/11/06 08:45:25;;;;;;;6.80;5.40;;;8.00;94.20;;;8.63;62.17;98788.50;4983457;28;113030;-76
2022/11/06 08:47:52;;;;;;;8.37;5.50;;;8.00;94.00;;;8.64;61.32;98784.63;4952832;28;123058;-75
2022/11/06 08:50:18;;;;;;;6.63;5.00;;;8.00;93.60;;;8.62;61.41;98787.69;4958303;28;123564;-74
2022/11/06 08:52:45;;;;;;;6.50;4.63;;;8.00;93.50;;;8.62;61.18;98778.59;4949425;28;114229;-75
2022/11/06 08:55:11;;;;;;;7.90;5.40;;;8.60;93.60;;;8.65;61.13;98782.69;4967116;28;113871;-75
2022/11/06 08:57:37;;;;;;;6.10;4.60;;;8.10;93.30;;;8.67;60.91;98781.25;4963409;28;123921;-74
2022/11/06 09:00:05;;;;;;;10.30;5.47;;;8.10;93.20;;;8.68;60.88;98771.91;4975146;28;122885;-75
2022/11/06 09:02:32;;;;;;;4.93;3.60;;;8.20;93.20;;;8.72;60.95;98770.16;4968887;28;113954;-76
2022/11/06 09:04:58;;;;;;;7.17;4.60;;;8.30;93.20;;;8.76;60.77;98764.88;4956822;28;113701;-74
2022/11/06 09:07:25;;;;;;;6.13;4.43;;;8.20;93.10;;;8.81;60.78;98768.38;4951100;28;124120;-75
2022/11/06 09:09:51;;;;;;;6.80;4.40;;;8.30;93.10;;;8.89;60.86;98774.28;4954591;28;123471;-75
2022/11/06 09:12:18;;;;;;;7.40;5.10;;;8.30;93.00;;;8.91;60.35;98775.63;4966036;28;115065;-76
2022/11/06 09:14:44;;;;;;;5.63;3.83;;;8.40;93.00;;;8.97;60.29;98773.59;4968834;28;114869;-75
2022/11/06 09:17:11;;;;;;;6.33;4.70;;;8.40;93.00;;;9.02;60.22;98765.25;4974759;28;124010;-75
2022/11/06 09:19:37;;;;;;;7.80;4.90;;;8.50;93.30;;;9.05;60.13;98778.41;4971173;28;121889;-77
2022/11/06 09:22:03;;;;;;;10.20;5.33;;;8.50;92.90;;;9.07;60.19;98765.16;4984806;28;113475;-75
2022/11/06 09:24:30;;;;;;;6.27;4.27;;;8.50;92.80;;;9.09;60.15;98765.66;4984118;28;112345;-76
2022/11/06 09:26:56;;;;;;;9.20;5.03;;;8.60;92.80;;;9.13;60.09;98776.91;4968729;28;123847;-77
2022/11/06 09:29:23;;;;;;;5.33;4.67;;;8.60;92.80;;;9.18;59.99;98796.91;4980234;28;122779;-78
2022/11/06 09:31:50;;;;;;;5.90;4.87;;;7.60;92.40;;;9.22;60.20;98808.97;4961973;28;114348;-78
2022/11/06 09:34:16;;;;;;;7.30;5.30;;;8.70;92.80;;;9.25;59.89;98805.63;4974355;28;113220;-75
2022/11/06 09:36:43;;;;;;;6.13;4.83;;;8.70;92.80;;;9.27;60.06;98805.31;4970138;28;124102;-76
2022/11/06 09:39:09;;;;;;;7.57;5.43;;;8.70;92.80;;;9.32;60.13;98793.38;4969479;28;125374;-76
2022/11/06 09:41:58;;;;;;;6.63;4.47;;;8.90;92.90;;;9.40;60.34;98776.09;4987390;28;113168;-76
2022/11/06 09:44:58;;;;;;;6.73;4.60;;;8.90;92.90;;;9.51;60.36;98769.28;4984456;28;113543;-77
2022/11/06 09:47:31;;;;;;;9.57;5.10;;;9.00;92.90;;;9.61;61.60;98771.81;4964494;28;124196;-76
2022/11/06 09:49:58;;;;;;;8.23;5.03;;;9.00;93.30;;;9.76;61.64;98778.19;4961792;28;123793;-74
2022/11/06 09:52:39;;;;;;;6.33;4.67;;;9.20;93.80;;;9.90;61.27;98756.91;4990724;28;113840;-77
2022/11/06 09:55:21;;;;;;;8.80;6.30;;;9.30;93.80;;;10.02;61.33;98737.88;4970176;28;113628;-77
2022/11/06 09:57:58;;;;;;;7.00;5.03;;;9.40;93.90;;;10.16;61.51;98749.69;4941469;28;123298;-76
2022/11/06 10:00:25;;;;;;;6.20;4.87;;;9.50;94.00;;;10.27;61.23;98735.66;4957987;28;123766;-77
2022/11/06 10:03:21;;;;;;;6.70;5.17;;;9.60;93.80;;;10.38;60.88;98726.03;4977841;28;114714;-76
2022/11/06 10:05:47;;;;;;;7.87;5.80;;;9.70;93.60;;;10.47;60.21;98718.59;4955563;28;114920;-76
2022/11/06 10:08:22;;;;;;;8.90;6.30;;;9.80;93.40;;;10.55;59.16;98728.09;4966638;28;123987;-77
2022/11/06 10:11:14;;;;;;;5.97;4.50;;;9.90;93.00;;;10.64;59.32;98715.16;4963455;28;123040;-77
2022/11/06 10:14:14;;;;;;;9.73;5.07;;;10.00;92.80;;;10.73;58.92;98712.44;4956920;28;113971;-75
2022/11/06 10:17:21;;;;;;;8.20;6.10;;;10.10;92.40;;;10.82;58.49;98716.06;4981055;28;113147;-77
2022/11/06 10:20:20;;;;;;;8.10;5.33;;;10.20;92.10;;;10.90;58.20;98706.19;5002027;28;123704;-77
2022/11/06 10:23:19;;;;;;;5.97;4.47;;;10.20;91.90;;;10.97;58.29;98704.63;4947479;28;124000;-76
2022/11/06 10:26:09;;;;;;;9.70;5.07;;;10.30;92.00;;;11.08;57.75;98696.88;4949691;28;114166;-76
2022/11/06 10:29:00;;;;;;;8.37;5.63;;;10.60;92.00;;;11.17;57.43;98678.34;4926871;28;113090;-76
2022/11/06 10:31:59;;;;;;;10.43;5.93;;;10.50;91.70;;;11.22;57.49;98669.91;4946298;28;124094;-77
2022/11/06 10:34:42;;;;;;;8.20;5.90;;;10.60;91.60;;;11.32;57.44;98668.00;4947422;28;124509;-76
2022/11/06 10:37:21;;;;;;;9.00;6.10;;;10.70;91.60;;;11.37;57.01;98665.91;4948489;28;113333;-77
2022/11/06 10:39:49;;;;;;;7.50;5.70;;;10.70;91.30;;;11.42;57.10;98656.66;4928559;28;114249;-78
2022/11/06 10:42:19;;;;;;;8.53;5.97;;;10.80;91.30;;;11.47;56.43;98654.56;4939346;28;123973;-76
2022/11/06 10:45:02;;;;;;;8.97;4.77;;;10.80;91.20;;;11.56;56.95;98653.75;4926741;28;124331;-76
2022/11/06 10:47:33;;;;;;;7.53;5.40;;;10.90;91.20;;;11.65;56.50;98651.81;4943263;28;112637;-77
2022/11/06 10:50:03;;;;;;;8.23;5.80;;;11.00;91.30;;;11.72;56.76;98643.84;4946907;28;113152;-77
2022/11/06 10:53:00;;;;;;;8.80;5.70;;;11.10;91.40;;;11.83;57.32;98633.28;4933109;28;123125;-77
2022/11/06 10:55:54;;;;;;;8.50;5.73;;;11.20;91.50;;;11.87;56.25;98635.06;4936235;28;124261;-75
2022/11/06 10:58:22;;;;;;;7.97;5.87;;;11.30;91.10;;;11.89;56.54;98623.69;4946972;28;115269;-76
2022/11/06 11:00:57;;;;;;;6.40;4.70;;;11.30;91.00;;;11.90;56.53;98614.22;4964778;28;114214;-75